KAP2681 TJVQ-TJSJ
Flight info
| Callsign | KAP2681 |
|---|---|
| Flight time | 0h 16m |
| Altitude | 0 |
| Route | VFR |
| Aircraft | P212/L-VGD/C |
Departure
| Time | 2026-04-26 04:10 |
|---|---|
| Airport | Antonio Rivera Rodriguez Airport (TJVQ) |
Arrival
| Time | 2026-04-26 04:27 |
|---|---|
| Airport | Luis Munoz Marin International Airport (TJSJ) |
| Time | Latitude | Longitude | Altitude | Speed | Heading |
|---|---|---|---|---|---|
| 2026-04-26 04:03 | 18.13497 | -65.48777 | 27 ft | 0 kts | 254° |
| 2026-04-26 04:05 | 18.13497 | -65.48778 | 27 ft | 0 kts | 254° |
| 2026-04-26 04:05 | 18.13497 | -65.48779 | 27 ft | 0 kts | 254° |
| 2026-04-26 04:05 | 18.13500 | -65.48804 | 30 ft | 8 kts | 306° |
| 2026-04-26 04:06 | 18.13518 | -65.48819 | 29 ft | 0 kts | 327° |
| 2026-04-26 04:06 | 18.13536 | -65.48833 | 30 ft | 0 kts | 313° |
| 2026-04-26 04:09 | 18.13545 | -65.48844 | 32 ft | 4 kts | 312° |
| 2026-04-26 04:09 | 18.13568 | -65.48875 | 30 ft | 6 kts | 300° |
| 2026-04-26 04:09 | 18.13583 | -65.48933 | 32 ft | 9 kts | 262° |
| 2026-04-26 04:09 | 18.13536 | -65.49138 | 39 ft | 55 kts | 257° |
| 2026-04-26 04:10 | 18.13422 | -65.49695 | 87 ft | 92 kts | 258° |
| 2026-04-26 04:10 | 18.13384 | -65.50379 | 328 ft | 101 kts | 282° |
| 2026-04-26 04:10 | 18.13748 | -65.51066 | 492 ft | 111 kts | 302° |
| 2026-04-26 04:10 | 18.14199 | -65.51737 | 724 ft | 114 kts | 303° |
| 2026-04-26 04:11 | 18.14665 | -65.52425 | 964 ft | 116 kts | 307° |
| 2026-04-26 04:11 | 18.15261 | -65.53033 | 1160 ft | 121 kts | 317° |
| 2026-04-26 04:11 | 18.15901 | -65.53606 | 1404 ft | 121 kts | 318° |
| 2026-04-26 04:11 | 18.16562 | -65.54190 | 1556 ft | 134 kts | 319° |
| 2026-04-26 04:12 | 18.17298 | -65.54825 | 1843 ft | 133 kts | 320° |
| 2026-04-26 04:12 | 18.18064 | -65.55355 | 2165 ft | 135 kts | 323° |
| 2026-04-26 04:12 | 18.18777 | -65.55953 | 2522 ft | 131 kts | 316° |
| 2026-04-26 04:12 | 18.19400 | -65.56657 | 2834 ft | 132 kts | 307° |
| 2026-04-26 04:13 | 18.19959 | -65.57441 | 3157 ft | 133 kts | 305° |
| 2026-04-26 04:13 | 18.20534 | -65.58241 | 3398 ft | 140 kts | 307° |
| 2026-04-26 04:13 | 18.21136 | -65.59063 | 3652 ft | 143 kts | 303° |
| 2026-04-26 04:13 | 18.21589 | -65.59907 | 4133 ft | 129 kts | 292° |
| 2026-04-26 04:14 | 18.22087 | -65.60801 | 4157 ft | 152 kts | 305° |
| 2026-04-26 04:14 | 18.22785 | -65.61683 | 4277 ft | 160 kts | 313° |
| 2026-04-26 04:14 | 18.23596 | -65.62560 | 4236 ft | 173 kts | 312° |
| 2026-04-26 04:14 | 18.24441 | -65.63495 | 4231 ft | 178 kts | 312° |
| 2026-04-26 04:15 | 18.25303 | -65.64451 | 4229 ft | 181 kts | 312° |
| 2026-04-26 04:15 | 18.26173 | -65.65415 | 4230 ft | 183 kts | 312° |
| 2026-04-26 04:15 | 18.27048 | -65.66388 | 4227 ft | 183 kts | 312° |
| 2026-04-26 04:15 | 18.27928 | -65.67365 | 4226 ft | 185 kts | 312° |
| 2026-04-26 04:16 | 18.28816 | -65.68347 | 4246 ft | 184 kts | 313° |
| 2026-04-26 04:16 | 18.29711 | -65.69292 | 4312 ft | 182 kts | 314° |
| 2026-04-26 04:16 | 18.30318 | -65.69904 | 4308 ft | 184 kts | 315° |
| 2026-04-26 04:16 | 18.31229 | -65.70880 | 4115 ft | 195 kts | 309° |
| 2026-04-26 04:17 | 18.32078 | -65.72047 | 3780 ft | 202 kts | 305° |
| 2026-04-26 04:17 | 18.32887 | -65.73225 | 3755 ft | 193 kts | 306° |
| 2026-04-26 04:17 | 18.33645 | -65.74337 | 3746 ft | 182 kts | 302° |
| 2026-04-26 04:17 | 18.34302 | -65.75452 | 3741 ft | 177 kts | 300° |
| 2026-04-26 04:18 | 18.34934 | -65.76548 | 3741 ft | 174 kts | 300° |
| 2026-04-26 04:18 | 18.35560 | -65.77634 | 3741 ft | 173 kts | 300° |
| 2026-04-26 04:18 | 18.36180 | -65.78709 | 3740 ft | 171 kts | 300° |
| 2026-04-26 04:18 | 18.36796 | -65.79779 | 3741 ft | 171 kts | 300° |
| 2026-04-26 04:19 | 18.37411 | -65.80846 | 3743 ft | 170 kts | 300° |
| 2026-04-26 04:19 | 18.38026 | -65.81913 | 3740 ft | 170 kts | 300° |
| 2026-04-26 04:19 | 18.38639 | -65.82981 | 3739 ft | 170 kts | 300° |
| 2026-04-26 04:19 | 18.39251 | -65.84048 | 3741 ft | 170 kts | 300° |
| 2026-04-26 04:20 | 18.39862 | -65.85118 | 3743 ft | 170 kts | 300° |
| 2026-04-26 04:20 | 18.40471 | -65.86183 | 3741 ft | 170 kts | 300° |
| 2026-04-26 04:20 | 18.41053 | -65.87275 | 3657 ft | 175 kts | 292° |
| 2026-04-26 04:20 | 18.41390 | -65.88535 | 3453 ft | 183 kts | 280° |
| 2026-04-26 04:21 | 18.41499 | -65.89860 | 3377 ft | 180 kts | 271° |
| 2026-04-26 04:21 | 18.41559 | -65.91169 | 3301 ft | 179 kts | 272° |
| 2026-04-26 04:21 | 18.41606 | -65.92479 | 3196 ft | 180 kts | 270° |
| 2026-04-26 04:21 | 18.41358 | -65.93754 | 2905 ft | 181 kts | 242° |
| 2026-04-26 04:22 | 18.40682 | -65.94870 | 2685 ft | 176 kts | 241° |
| 2026-04-26 04:22 | 18.40330 | -65.96020 | 2435 ft | 164 kts | 258° |
| 2026-04-26 04:22 | 18.40217 | -65.97229 | 1915 ft | 171 kts | 270° |
| 2026-04-26 04:22 | 18.40324 | -65.98452 | 1564 ft | 165 kts | 279° |
| 2026-04-26 04:23 | 18.40603 | -65.99558 | 1512 ft | 144 kts | 284° |
| 2026-04-26 04:23 | 18.40739 | -66.00538 | 1496 ft | 126 kts | 275° |
| 2026-04-26 04:23 | 18.40834 | -66.01447 | 1423 ft | 119 kts | 278° |
| 2026-04-26 04:23 | 18.40975 | -66.02253 | 1432 ft | 109 kts | 283° |
| 2026-04-26 04:24 | 18.41154 | -66.03021 | 1369 ft | 107 kts | 280° |
| 2026-04-26 04:24 | 18.41287 | -66.03805 | 1237 ft | 110 kts | 284° |
| 2026-04-26 04:24 | 18.41454 | -66.04559 | 1099 ft | 104 kts | 271° |
| 2026-04-26 04:24 | 18.41578 | -66.05296 | 962 ft | 98 kts | 305° |
| 2026-04-26 04:25 | 18.42206 | -66.05515 | 734 ft | 106 kts | 12° |
| 2026-04-26 04:25 | 18.42878 | -66.05288 | 637 ft | 101 kts | 21° |
| 2026-04-26 04:25 | 18.43379 | -66.04811 | 487 ft | 99 kts | 81° |
| 2026-04-26 04:25 | 18.43368 | -66.04061 | 395 ft | 101 kts | 94° |
| 2026-04-26 04:26 | 18.43345 | -66.03318 | 332 ft | 103 kts | 94° |
| 2026-04-26 04:26 | 18.43368 | -66.02574 | 278 ft | 103 kts | 90° |
| 2026-04-26 04:26 | 18.43365 | -66.01871 | 118 ft | 97 kts | 94° |
| 2026-04-26 04:26 | 18.43360 | -66.01152 | -5 ft | 97 kts | 91° |
| 2026-04-26 04:27 | 18.43359 | -66.00508 | -41 ft | 75 kts | 92° |
| 2026-04-26 04:27 | 18.43355 | -66.00079 | -38 ft | 34 kts | 89° |
| 2026-04-26 04:27 | 18.43426 | -65.99899 | -43 ft | 13 kts | 19° |
| 2026-04-26 04:27 | 18.43502 | -65.99920 | -31 ft | 8 kts | 351° |
| 2026-04-26 04:28 | 18.43519 | -65.99922 | -30 ft | 1 kts | 356° |
| 2026-04-26 04:28 | 18.43527 | -65.99925 | -30 ft | 1 kts | 332° |
| 2026-04-26 04:28 | 18.43529 | -65.99926 | -30 ft | 2 kts | 333° |
| 2026-04-26 04:29 | 18.43562 | -65.99942 | -30 ft | 9 kts | 336° |
| 2026-04-26 04:29 | 18.43654 | -65.99982 | -31 ft | 18 kts | 338° |
| 2026-04-26 04:29 | 18.43783 | -66.00020 | -43 ft | 13 kts | 340° |
| 2026-04-26 04:29 | 18.43890 | -66.00067 | -32 ft | 20 kts | 334° |
| 2026-04-26 04:30 | 18.44005 | -66.00126 | -32 ft | 0 kts | 307° |
| 2026-04-26 04:31 | 18.44006 | -66.00139 | -46 ft | 3 kts | 237° |
| 2026-04-26 04:31 | 18.43991 | -66.00159 | -42 ft | 4 kts | 233° |
| 2026-04-26 04:31 | 18.43976 | -66.00184 | -32 ft | 4 kts | 258° |
| 2026-04-26 04:32 | 18.43981 | -66.00215 | -32 ft | 5 kts | 295° |
| 2026-04-26 04:32 | 18.44011 | -66.00242 | -32 ft | 5 kts | 350° |
| 2026-04-26 04:32 | 18.44040 | -66.00235 | -40 ft | 1 kts | 22° |